createdAt,value
2022-09-03T00:00:09.515Z,8.60
2022-09-03T00:02:43.784Z,8.50
2022-09-03T00:05:19.887Z,8.50
2022-09-03T00:07:55.690Z,8.50
2022-09-03T00:10:28.784Z,8.50
2022-09-03T00:13:01.769Z,8.40
2022-09-03T00:15:33.525Z,8.40
2022-09-03T00:18:07.003Z,8.40
2022-09-03T00:20:42.320Z,8.40
2022-09-03T00:23:18.409Z,8.50
2022-09-03T00:25:51.622Z,8.40
2022-09-03T00:28:24.396Z,8.40
2022-09-03T00:30:57.508Z,8.40
2022-09-03T00:33:29.997Z,8.50
2022-09-03T00:36:11.374Z,8.50
2022-09-03T00:38:40.974Z,8.50
2022-09-03T00:41:18.564Z,8.50
2022-09-03T00:44:01.994Z,8.50
2022-09-03T00:46:37.944Z,8.50
2022-09-03T00:49:24.567Z,8.60
2022-09-03T00:52:04.237Z,8.60
2022-09-03T00:54:41.923Z,8.60
2022-09-03T00:57:25.867Z,8.60
2022-09-03T01:00:03.971Z,8.60
2022-09-03T01:02:47.285Z,8.60
2022-09-03T01:05:26.760Z,8.60
2022-09-03T01:08:08.162Z,8.60
2022-09-03T01:10:46.842Z,8.50
2022-09-03T01:13:21.214Z,8.40
2022-09-03T01:15:57.906Z,8.20
2022-09-03T01:18:34.305Z,8.10
2022-09-03T01:21:16.209Z,8.00
2022-09-03T01:24:09.115Z,8.00
2022-09-03T01:26:59.362Z,7.80
2022-09-03T01:29:35.526Z,7.70
2022-09-03T01:32:15.790Z,7.70
2022-09-03T01:34:55.445Z,7.60
2022-09-03T01:37:37.294Z,7.60
2022-09-03T01:40:17.303Z,7.60
2022-09-03T01:43:01.119Z,7.60
2022-09-03T01:45:51.558Z,7.50
2022-09-03T01:48:33.726Z,7.50
2022-09-03T01:51:10.993Z,7.50
2022-09-03T01:53:58.068Z,7.50
2022-09-03T01:56:38.979Z,7.40
2022-09-03T01:59:15.683Z,7.40
2022-09-03T02:01:52.082Z,7.30
2022-09-03T02:04:23.211Z,7.30
2022-09-03T02:06:52.983Z,7.30
2022-09-03T02:09:21.676Z,7.20
2022-09-03T02:11:57.614Z,7.20
2022-09-03T02:14:27.438Z,7.10
2022-09-03T02:16:59.090Z,7.10
2022-09-03T02:19:29.201Z,7.10
2022-09-03T02:21:58.766Z,7.00
2022-09-03T02:24:27.336Z,7.00
2022-09-03T02:26:55.838Z,6.90
2022-09-03T02:29:25.219Z,6.90
2022-09-03T02:31:56.224Z,6.90
2022-09-03T02:34:25.331Z,6.80
2022-09-03T02:36:53.638Z,6.80
2022-09-03T02:39:21.634Z,6.70
2022-09-03T02:41:55.518Z,6.70
2022-09-03T02:44:31.599Z,6.70
2022-09-03T02:47:02.661Z,6.60
2022-09-03T02:49:30.809Z,6.60
2022-09-03T02:52:01.638Z,6.60
2022-09-03T02:54:29.572Z,6.60
2022-09-03T02:56:58.885Z,6.50
2022-09-03T02:59:28.260Z,6.50
2022-09-03T03:01:56.714Z,6.50
2022-09-03T03:04:31.162Z,6.40
2022-09-03T03:06:59.464Z,6.40
2022-09-03T03:09:27.865Z,6.40
2022-09-03T03:11:56.304Z,6.40
2022-09-03T03:14:24.342Z,6.40
2022-09-03T03:16:52.922Z,6.40
2022-09-03T03:19:21.021Z,6.40
2022-09-03T03:21:50.637Z,6.40
2022-09-03T03:24:18.563Z,6.40
2022-09-03T03:26:46.715Z,6.40
2022-09-03T03:29:18.295Z,6.40
2022-09-03T03:31:46.254Z,6.40
2022-09-03T03:34:14.215Z,6.40
2022-09-03T03:36:42.157Z,6.40
2022-09-03T03:39:11.490Z,6.40
2022-09-03T03:41:40.040Z,6.30
2022-09-03T03:44:09.180Z,6.30
2022-09-03T03:46:39.349Z,6.20
2022-09-03T03:49:08.251Z,6.10
2022-09-03T03:51:38.030Z,6.10
2022-09-03T03:54:06.693Z,6.10
2022-09-03T03:56:36.526Z,6.10
2022-09-03T03:59:05.329Z,6.10
2022-09-03T04:01:33.340Z,6.10
2022-09-03T04:04:01.396Z,6.00
2022-09-03T04:06:29.770Z,6.00
2022-09-03T04:08:57.860Z,5.90
2022-09-03T04:11:26.588Z,5.90
2022-09-03T04:13:55.908Z,5.90
2022-09-03T04:16:25.299Z,5.90
2022-09-03T04:18:54.508Z,5.90
2022-09-03T04:21:24.441Z,5.90
2022-09-03T04:23:54.519Z,5.80
2022-09-03T04:26:25.902Z,5.80
2022-09-03T04:28:55.342Z,5.80
2022-09-03T04:31:23.490Z,5.80
2022-09-03T04:33:52.156Z,5.80
2022-09-03T04:36:21.951Z,5.80
2022-09-03T04:38:52.023Z,5.80
2022-09-03T04:41:22.174Z,5.80
2022-09-03T04:43:51.796Z,5.80
2022-09-03T04:46:23.413Z,5.80
2022-09-03T04:48:53.445Z,5.80
2022-09-03T04:51:24.268Z,5.80
2022-09-03T04:53:57.570Z,5.90
2022-09-03T04:56:27.857Z,5.90
2022-09-03T04:58:57.477Z,6.00
2022-09-03T05:01:28.336Z,6.30
2022-09-03T05:03:58.034Z,6.60
2022-09-03T05:06:26.626Z,6.90
2022-09-03T05:08:56.359Z,7.00
2022-09-03T05:11:25.228Z,7.10
2022-09-03T05:13:54.896Z,7.30
2022-09-03T05:16:23.873Z,7.40
2022-09-03T05:18:55.857Z,7.50
2022-09-03T05:21:24.559Z,7.50
2022-09-03T05:23:53.926Z,7.60
2022-09-03T05:26:25.213Z,7.60
2022-09-03T05:28:56.289Z,7.70
2022-09-03T05:31:26.379Z,7.90
2022-09-03T05:33:58.471Z,8.40
2022-09-03T05:36:28.906Z,9.20
2022-09-03T05:38:58.625Z,10.40
2022-09-03T05:41:27.999Z,11.50
2022-09-03T05:43:59.050Z,12.00
2022-09-03T05:46:31.683Z,12.20
2022-09-03T05:49:02.032Z,12.40
2022-09-03T05:51:31.117Z,13.20
2022-09-03T05:53:59.860Z,13.90
2022-09-03T05:56:30.482Z,14.80
2022-09-03T05:59:02.069Z,15.60
2022-09-03T06:01:31.877Z,16.40
2022-09-03T06:04:02.867Z,17.30
2022-09-03T06:06:32.454Z,18.00
2022-09-03T06:09:02.540Z,18.70
2022-09-03T06:11:32.892Z,19.30
2022-09-03T06:14:05.023Z,19.90
2022-09-03T06:16:34.609Z,20.40
2022-09-03T06:19:07.178Z,21.00
2022-09-03T06:21:35.860Z,21.50
2022-09-03T06:24:04.415Z,21.90
2022-09-03T06:26:32.390Z,22.30
2022-09-03T06:29:00.324Z,22.60
2022-09-03T06:31:28.415Z,22.60
2022-09-03T06:33:59.606Z,22.70
2022-09-03T06:36:30.260Z,22.60
2022-09-03T06:38:58.371Z,22.60
2022-09-03T06:41:28.185Z,22.70
2022-09-03T06:43:59.166Z,23.00
2022-09-03T06:46:27.069Z,23.10
2022-09-03T06:48:55.517Z,22.80
2022-09-03T06:51:26.074Z,22.50
2022-09-03T06:54:00.822Z,22.40
2022-09-03T06:56:28.808Z,22.20
2022-09-03T06:58:58.317Z,21.90
2022-09-03T07:01:28.363Z,21.70
2022-09-03T07:04:05.111Z,21.30
2022-09-03T07:06:40.158Z,21.00
2022-09-03T07:09:10.818Z,20.50
2022-09-03T07:11:46.930Z,20.10
2022-09-03T07:14:16.488Z,19.70
2022-09-03T07:16:44.449Z,19.30
2022-09-03T07:19:13.481Z,18.90
2022-09-03T07:21:48.142Z,18.60
2022-09-03T07:24:19.632Z,18.30
2022-09-03T07:26:48.936Z,18.20
2022-09-03T07:29:20.322Z,18.20
2022-09-03T07:31:51.652Z,18.00
2022-09-03T07:34:24.120Z,17.90
2022-09-03T07:37:00.795Z,17.70
2022-09-03T07:39:35.710Z,17.70
2022-09-03T07:42:03.896Z,17.70
2022-09-03T07:44:31.805Z,18.00
2022-09-03T07:47:00.793Z,18.10
2022-09-03T07:49:29.772Z,18.30
2022-09-03T07:52:00.832Z,18.40
2022-09-03T07:54:31.786Z,18.40
2022-09-03T07:57:19.266Z,18.40
2022-09-03T08:00:05.107Z,18.40
2022-09-03T08:02:46.551Z,18.60
2022-09-03T08:05:32.963Z,18.70
2022-09-03T08:08:19.912Z,18.90
2022-09-03T08:10:47.935Z,19.20
2022-09-03T08:13:17.352Z,19.30
2022-09-03T08:16:10.908Z,19.70
2022-09-03T08:18:40.339Z,20.20
2022-09-03T08:21:21.750Z,20.70
2022-09-03T08:23:51.353Z,21.20
2022-09-03T08:26:21.214Z,21.70
2022-09-03T08:29:06.265Z,22.20
2022-09-03T08:31:49.266Z,22.40
2022-09-03T08:34:20.947Z,22.90
2022-09-03T08:36:52.941Z,23.10
2022-09-03T08:39:24.255Z,23.00
2022-09-03T08:42:33.596Z,23.30
2022-09-03T08:45:11.105Z,23.90
2022-09-03T08:47:49.364Z,23.70
2022-09-03T08:50:35.673Z,23.90
2022-09-03T08:53:27.901Z,24.10
2022-09-03T08:56:16.282Z,24.10
2022-09-03T08:58:50.210Z,24.30
2022-09-03T09:01:51.257Z,24.60
2022-09-03T09:04:36.021Z,24.70
2022-09-03T09:07:13.643Z,24.40
2022-09-03T09:09:49.911Z,24.70
2022-09-03T09:12:34.637Z,25.10
2022-09-03T09:15:19.371Z,25.00
2022-09-03T09:17:57.886Z,25.10
2022-09-03T09:20:36.074Z,25.10
2022-09-03T09:23:07.408Z,25.10
2022-09-03T09:25:45.688Z,24.90
2022-09-03T09:28:21.685Z,24.20
2022-09-03T09:30:52.078Z,23.90
2022-09-03T09:33:23.024Z,24.00
2022-09-03T09:35:51.197Z,24.00
2022-09-03T09:38:29.345Z,24.30
2022-09-03T09:40:58.259Z,24.60
2022-09-03T09:43:26.162Z,25.00
2022-09-03T09:45:55.581Z,25.00
2022-09-03T09:48:31.297Z,25.00
2022-09-03T09:51:11.413Z,24.70
2022-09-03T09:53:40.137Z,24.80
2022-09-03T09:56:09.752Z,25.00
2022-09-03T09:58:38.294Z,25.40
2022-09-03T10:01:13.461Z,25.20
2022-09-03T10:03:50.442Z,25.40
2022-09-03T10:06:44.372Z,25.60
2022-09-03T10:09:14.429Z,25.30
2022-09-03T10:11:46.250Z,24.90
2022-09-03T10:14:21.318Z,25.20
2022-09-03T10:16:55.818Z,24.70
2022-09-03T10:19:35.977Z,24.70
2022-09-03T10:22:11.045Z,25.00
2022-09-03T10:24:49.450Z,24.70
2022-09-03T10:27:19.196Z,25.10
2022-09-03T10:29:47.141Z,25.40
2022-09-03T10:32:25.610Z,25.90
2022-09-03T10:35:11.871Z,26.30
2022-09-03T10:37:43.828Z,26.80
2022-09-03T10:40:30.938Z,26.70
2022-09-03T10:43:16.871Z,26.00
2022-09-03T10:45:59.306Z,26.10
2022-09-03T10:48:50.013Z,26.30
2022-09-03T10:51:25.014Z,26.50
2022-09-03T10:54:22.544Z,26.50
2022-09-03T10:56:59.140Z,26.70
2022-09-03T10:59:37.174Z,26.60
2022-09-03T11:02:22.917Z,26.60
2022-09-03T11:04:57.139Z,26.60
2022-09-03T11:07:33.021Z,26.60
2022-09-03T11:10:12.395Z,26.70
2022-09-03T11:12:45.386Z,26.80
2022-09-03T11:15:17.329Z,27.10
2022-09-03T11:17:50.023Z,27.20
2022-09-03T11:20:21.352Z,26.90
2022-09-03T11:22:54.216Z,26.90
2022-09-03T11:25:32.521Z,26.90
2022-09-03T11:28:11.630Z,26.60
2022-09-03T11:30:54.626Z,26.80
2022-09-03T11:33:26.016Z,26.90
2022-09-03T11:36:00.820Z,26.90
2022-09-03T11:38:32.142Z,26.90
2022-09-03T11:41:04.394Z,27.00
2022-09-03T11:43:33.371Z,27.10
2022-09-03T11:46:12.902Z,26.70
2022-09-03T11:48:43.875Z,26.90
2022-09-03T11:51:32.232Z,27.10
2022-09-03T11:54:03.103Z,27.30
2022-09-03T11:56:32.482Z,27.30
2022-09-03T11:59:04.652Z,27.20
2022-09-03T12:01:34.436Z,27.00
2022-09-03T12:04:05.648Z,26.90
2022-09-03T12:06:47.605Z,27.10
2022-09-03T12:09:46.090Z,27.30
2022-09-03T12:12:38.379Z,27.20
2022-09-03T12:15:15.117Z,26.40
2022-09-03T12:18:13.445Z,26.60
2022-09-03T12:20:42.312Z,26.70
2022-09-03T12:23:12.215Z,26.10
2022-09-03T12:25:47.398Z,25.80
2022-09-03T12:28:23.879Z,26.20
2022-09-03T12:30:53.753Z,26.40
2022-09-03T12:33:23.973Z,26.50
2022-09-03T12:36:02.785Z,26.90
2022-09-03T12:38:40.527Z,27.00
2022-09-03T12:41:28.285Z,26.90
2022-09-03T12:43:58.249Z,26.80
2022-09-03T12:46:33.153Z,26.80
2022-09-03T12:52:05.508Z,27.20
2022-09-03T12:54:35.401Z,27.10
2022-09-03T12:57:05.447Z,27.20
2022-09-03T12:59:36.179Z,27.20
2022-09-03T13:02:14.431Z,27.40
2022-09-03T13:04:43.485Z,27.10
2022-09-03T13:07:21.044Z,26.80
2022-09-03T13:09:49.794Z,26.50
2022-09-03T13:12:33.479Z,26.60
2022-09-03T13:15:09.102Z,26.80
2022-09-03T13:18:02.696Z,27.00
2022-09-03T13:20:35.966Z,27.10
2022-09-03T13:23:15.631Z,27.30
2022-09-03T13:25:53.028Z,27.50
2022-09-03T13:28:34.935Z,27.60
2022-09-03T13:31:12.188Z,27.50
2022-09-03T13:33:44.963Z,26.80
2022-09-03T13:36:18.857Z,26.50
2022-09-03T13:38:54.053Z,26.50
2022-09-03T13:41:36.586Z,26.30
2022-09-03T13:44:12.652Z,26.40
2022-09-03T13:46:46.315Z,26.40
2022-09-03T13:49:49.557Z,26.30
2022-09-03T13:52:26.319Z,26.20
2022-09-03T13:54:58.360Z,26.30
2022-09-03T13:57:33.864Z,26.60
2022-09-03T14:00:08.177Z,26.70
2022-09-03T14:02:47.420Z,26.60
2022-09-03T14:05:20.802Z,26.60
2022-09-03T14:07:59.085Z,26.70
2022-09-03T14:10:36.962Z,26.70
2022-09-03T14:13:13.465Z,26.70
2022-09-03T14:15:49.439Z,26.10
2022-09-03T14:18:34.857Z,26.10
2022-09-03T14:21:06.782Z,26.10
2022-09-03T14:23:41.624Z,26.00
2022-09-03T14:26:18.305Z,25.90
2022-09-03T14:28:50.368Z,26.20
2022-09-03T14:31:32.336Z,25.80
2022-09-03T14:34:06.942Z,25.60
2022-09-03T14:36:42.322Z,25.50
2022-09-03T14:39:30.840Z,25.50
2022-09-03T14:42:28.939Z,25.00
2022-09-03T14:45:14.121Z,24.80
2022-09-03T14:48:02.146Z,24.60
2022-09-03T14:50:44.594Z,24.60
2022-09-03T14:53:26.277Z,24.20
2022-09-03T14:56:24.425Z,24.20
2022-09-03T14:59:08.956Z,24.30
2022-09-03T15:01:39.190Z,24.30
2022-09-03T15:04:52.687Z,24.60
2022-09-03T15:07:31.893Z,24.50
2022-09-03T15:10:08.435Z,24.60
2022-09-03T15:12:41.525Z,24.70
2022-09-03T15:15:14.439Z,24.60
2022-09-03T15:17:53.159Z,24.30
2022-09-03T15:20:32.872Z,24.20
2022-09-03T15:23:18.108Z,24.10
2022-09-03T15:26:17.553Z,23.90
2022-09-03T15:28:58.540Z,23.70
2022-09-03T15:31:39.852Z,23.60
2022-09-03T15:34:15.240Z,23.50
2022-09-03T15:36:48.620Z,23.60
2022-09-03T15:39:22.708Z,23.60
2022-09-03T15:41:57.005Z,23.70
2022-09-03T15:44:26.901Z,23.60
2022-09-03T15:46:58.760Z,23.60
2022-09-03T15:49:37.706Z,23.60
2022-09-03T15:52:29.510Z,23.50
2022-09-03T15:55:03.155Z,23.50
2022-09-03T15:57:39.326Z,23.40
2022-09-03T16:00:13.220Z,23.20
2022-09-03T16:02:47.271Z,23.10
2022-09-03T16:05:20.279Z,22.90
2022-09-03T16:08:06.049Z,22.90
2022-09-03T16:10:44.569Z,22.80
2022-09-03T16:13:32.525Z,22.70
2022-09-03T16:16:04.870Z,22.60
2022-09-03T16:18:37.623Z,22.40
2022-09-03T16:21:10.328Z,22.40
2022-09-03T16:23:48.263Z,22.30
2022-09-03T16:26:22.324Z,22.20
2022-09-03T16:28:58.384Z,22.10
2022-09-03T16:31:37.677Z,22.00
2022-09-03T16:34:18.487Z,21.80
2022-09-03T16:36:54.332Z,21.80
2022-09-03T16:39:37.089Z,21.80
2022-09-03T16:42:12.734Z,21.60
2022-09-03T16:44:51.650Z,21.50
2022-09-03T16:47:32.356Z,21.40
2022-09-03T16:50:10.300Z,21.30
2022-09-03T16:52:53.726Z,21.20
2022-09-03T16:55:30.219Z,21.20
2022-09-03T16:58:18.001Z,21.10
2022-09-03T17:01:06.716Z,21.00
2022-09-03T17:04:04.013Z,21.10
2022-09-03T17:06:53.914Z,21.00
2022-09-03T17:09:35.240Z,20.90
2022-09-03T17:12:15.684Z,20.70
2022-09-03T17:15:01.228Z,20.50
2022-09-03T17:17:45.071Z,20.30
2022-09-03T17:20:19.995Z,20.30
2022-09-03T17:23:04.638Z,20.30
2022-09-03T17:25:37.983Z,20.40
2022-09-03T17:28:25.297Z,20.40
2022-09-03T17:30:58.555Z,20.40
2022-09-03T17:33:57.808Z,20.30
2022-09-03T17:36:27.417Z,20.10
2022-09-03T17:39:36.050Z,20.00
2022-09-03T17:42:13.048Z,20.00
2022-09-03T17:44:56.396Z,19.90
2022-09-03T17:47:41.531Z,19.90
2022-09-03T17:50:17.807Z,19.70
2022-09-03T17:52:48.651Z,19.50
2022-09-03T17:55:25.233Z,19.50
2022-09-03T17:58:00.778Z,19.50
2022-09-03T18:00:35.976Z,19.40
2022-09-03T18:03:13.449Z,19.40
2022-09-03T18:05:48.399Z,19.40
2022-09-03T18:08:22.366Z,19.30
2022-09-03T18:10:59.584Z,19.30
2022-09-03T18:13:41.047Z,19.20
2022-09-03T18:16:16.829Z,19.20
2022-09-03T18:18:48.409Z,19.10
2022-09-03T18:21:40.989Z,19.00
2022-09-03T18:24:41.682Z,19.00
2022-09-03T18:27:30.792Z,18.90
2022-09-03T18:30:22.713Z,18.70
2022-09-03T18:33:09.600Z,18.70
2022-09-03T18:35:55.971Z,18.60
2022-09-03T18:38:45.206Z,18.50
2022-09-03T18:41:43.380Z,18.40
2022-09-03T18:44:36.488Z,18.30
2022-09-03T18:48:04.598Z,18.20
2022-09-03T18:51:00.160Z,18.10
2022-09-03T18:53:53.935Z,17.90
2022-09-03T18:56:51.223Z,17.80
2022-09-03T18:59:53.663Z,17.70
2022-09-03T19:02:48.322Z,17.70
2022-09-03T19:05:41.423Z,17.60
2022-09-03T19:08:36.315Z,17.60
2022-09-03T19:11:27.845Z,17.60
2022-09-03T19:14:19.319Z,17.50
2022-09-03T19:17:18.688Z,17.50
2022-09-03T19:20:25.506Z,17.40
2022-09-03T19:23:10.940Z,17.40
2022-09-03T19:25:57.727Z,17.30
2022-09-03T19:28:44.501Z,17.30
2022-09-03T19:31:55.031Z,17.20
2022-09-03T19:35:01.107Z,17.10
2022-09-03T19:37:53.415Z,17.10
2022-09-03T19:41:03.857Z,17.10
2022-09-03T19:43:58.068Z,17.10
2022-09-03T19:46:50.731Z,17.10
2022-09-03T19:49:50.189Z,17.00
2022-09-03T19:52:43.600Z,16.90
2022-09-03T19:55:31.686Z,16.90
2022-09-03T19:58:41.518Z,16.90
2022-09-03T20:01:26.604Z,16.90
2022-09-03T20:04:15.053Z,16.80
2022-09-03T20:07:01.980Z,16.80
2022-09-03T20:09:51.032Z,16.70
2022-09-03T20:12:21.752Z,16.70
2022-09-03T20:14:50.985Z,16.70
2022-09-03T20:17:29.404Z,16.70
2022-09-03T20:20:16.451Z,16.80
2022-09-03T20:22:53.192Z,16.80
2022-09-03T20:25:51.104Z,16.90
2022-09-03T20:28:34.601Z,16.90
2022-09-03T20:31:12.916Z,16.90
2022-09-03T20:33:59.179Z,16.90
2022-09-03T20:36:34.859Z,17.00
2022-09-03T20:39:24.927Z,17.00
2022-09-03T20:42:00.445Z,16.90
2022-09-03T20:44:46.717Z,16.90
2022-09-03T20:47:31.869Z,16.90
2022-09-03T20:50:10.025Z,16.90
2022-09-03T20:52:47.796Z,17.00
2022-09-03T20:55:21.832Z,17.00
2022-09-03T20:57:54.825Z,17.00
2022-09-03T21:00:23.523Z,17.00
2022-09-03T21:03:15.894Z,17.00
2022-09-03T21:06:03.973Z,16.90
2022-09-03T21:08:55.787Z,16.90
2022-09-03T21:11:31.108Z,16.90
2022-09-03T21:14:09.806Z,16.90
2022-09-03T21:16:43.899Z,16.80
2022-09-03T21:19:25.894Z,16.80
2022-09-03T21:22:00.510Z,16.80
2022-09-03T21:24:33.577Z,16.80
2022-09-03T21:27:07.879Z,16.80
2022-09-03T21:29:44.342Z,16.80
2022-09-03T21:32:18.341Z,16.90
2022-09-03T21:34:57.698Z,16.90
2022-09-03T21:37:26.130Z,16.90
2022-09-03T21:39:57.125Z,16.90
2022-09-03T21:42:34.187Z,16.90
2022-09-03T21:45:07.669Z,16.80
2022-09-03T21:47:41.576Z,16.80
2022-09-03T21:50:18.240Z,16.80
2022-09-03T21:52:53.193Z,16.80
2022-09-03T21:55:23.727Z,16.80
2022-09-03T21:58:15.067Z,16.80
2022-09-03T22:00:43.645Z,16.80
2022-09-03T22:03:12.383Z,16.80
2022-09-03T22:05:51.404Z,16.90
2022-09-03T22:08:28.817Z,16.90
2022-09-03T22:11:04.238Z,16.80
2022-09-03T22:13:36.688Z,16.80
2022-09-03T22:16:14.152Z,16.80
2022-09-03T22:18:44.077Z,16.80
2022-09-03T22:21:20.146Z,16.90
2022-09-03T22:24:07.431Z,16.90
2022-09-03T22:26:45.148Z,16.90
2022-09-03T22:29:20.411Z,16.90
2022-09-03T22:31:56.579Z,16.80
2022-09-03T22:34:52.340Z,16.80
2022-09-03T22:37:32.550Z,16.80
2022-09-03T22:40:07.907Z,16.80
2022-09-03T22:42:51.073Z,16.80
2022-09-03T22:45:38.268Z,16.70
2022-09-03T22:48:15.913Z,16.70
2022-09-03T22:50:52.627Z,16.60
2022-09-03T22:53:35.373Z,16.50
2022-09-03T22:56:08.014Z,16.50
2022-09-03T22:58:42.329Z,16.40
2022-09-03T23:01:16.121Z,16.40
2022-09-03T23:03:49.510Z,16.30
2022-09-03T23:06:25.792Z,16.30
2022-09-03T23:09:01.328Z,16.20
2022-09-03T23:11:34.540Z,16.10
2022-09-03T23:14:06.237Z,16.10
2022-09-03T23:16:39.273Z,16.10
2022-09-03T23:21:55.028Z,16.20
2022-09-03T23:24:29.733Z,16.10
2022-09-03T23:26:59.921Z,16.10
2022-09-03T23:29:34.005Z,16.20
2022-09-03T23:32:05.153Z,16.20
2022-09-03T23:34:34.084Z,16.20
2022-09-03T23:37:35.008Z,16.20
2022-09-03T23:40:27.962Z,16.20
2022-09-03T23:43:31.064Z,16.30
2022-09-03T23:46:07.469Z,16.30
2022-09-03T23:48:48.628Z,16.30
2022-09-03T23:51:25.388Z,16.40
2022-09-03T23:54:04.100Z,16.40
2022-09-03T23:56:53.164Z,16.50
2022-09-03T23:59:30.501Z,16.50
